createdAt,value
2023-03-22T05:47:37.537Z,8.10
2023-03-22T05:50:06.446Z,8.30
2023-03-22T05:52:34.395Z,8.50
2023-03-22T05:55:02.400Z,8.70
2023-03-22T05:57:30.453Z,8.90
2023-03-22T05:59:58.683Z,9.00
2023-03-22T06:02:27.068Z,9.10
2023-03-22T06:04:56.480Z,9.10
2023-03-22T06:07:25.407Z,9.20
2023-03-22T06:09:53.390Z,9.20
2023-03-22T06:12:24.670Z,9.20
2023-03-22T06:14:52.816Z,9.30
2023-03-22T06:17:21.016Z,9.30
2023-03-22T06:19:49.465Z,9.40
2023-03-22T06:22:19.985Z,9.50
2023-03-22T06:24:48.500Z,9.60
2023-03-22T06:27:18.353Z,9.60
2023-03-22T06:29:50.595Z,9.70
2023-03-22T06:32:19.071Z,9.80
2023-03-22T06:34:47.143Z,9.90
2023-03-22T06:37:15.119Z,10.00
2023-03-22T06:39:44.625Z,10.20
2023-03-22T06:42:13.702Z,10.40
2023-03-22T06:44:43.871Z,10.90
2023-03-22T06:47:12.041Z,11.30
2023-03-22T06:49:40.049Z,12.90
2023-03-22T06:52:08.081Z,14.90
2023-03-22T06:54:36.220Z,16.90
2023-03-22T06:57:05.522Z,18.20
2023-03-22T06:59:33.477Z,18.50
2023-03-22T07:02:01.606Z,19.10
2023-03-22T07:04:29.626Z,19.70
2023-03-22T07:06:57.780Z,19.30
2023-03-22T07:09:26.882Z,19.20
2023-03-22T07:11:54.918Z,20.20
2023-03-22T07:14:24.233Z,21.20
2023-03-22T07:16:52.148Z,21.70
2023-03-22T07:19:20.038Z,21.80
2023-03-22T07:21:48.004Z,21.50
2023-03-22T07:24:15.960Z,21.60
2023-03-22T07:26:43.879Z,21.80
2023-03-22T07:29:11.868Z,21.90
2023-03-22T07:31:42.742Z,21.80
2023-03-22T07:34:11.092Z,21.40
2023-03-22T07:36:39.102Z,19.00
2023-03-22T07:39:07.177Z,16.10
2023-03-22T07:41:35.250Z,14.90
2023-03-22T07:44:16.938Z,14.00
